aviador You're here:

KIFA Decoded Metar

in _UNIDENTIFIED
Report Time2018-01-18 13:55:00
UTC Time2018-01-18 13:55:13
Flight Rules mvfr MVFR
Wind210° at 10 kt
W.Decomp.*RWY 13: 1.9 kt HW 9.8 kt RCW
W.Rank210° ranks 19
Current wind is above 210° avg. (9.2)
Visibility8047 m
Phenomena:Haze
Clouds:N/A
Expected CloudBase > 1,200 ft AGL from Temp-Dew spread
CeilingNone
Temp-7°C (ISA -20)
Dew Point-10°C (79% RH)
AAT-13.7°C
QNH1017 hPa
Density Alt-1,398 ft
Elevation1,138 ft
Report Wrong Elevation
Raw Report
METAR KIFA 181355Z AUTO 21010KT 5SM HZ CLR M07/M10 A3003 RMK AO2 T10671100=

Extra information for KIFA:More info

Metar Taf Metar & Taf Last 4 Metars F.Rules Stats Wind Profile Meteogram Temp Stats Metar ALERT Operation Metar Decoded Social comments